Wetterdaten: Woche 15.08.11 - 21.08.11 (KW33)
Datum Zeit Temp. A. Feuchte A. Luftdruck Regen Wind Richtung Taupunkt Windchill Windben
15.08.2011 00:00 20,0 C 80 % 1008,5 hPa 0,0 l/m 0,0 km/h N 16,3 C 20,0 C 0,0 km/h
15.08.2011 01:00 19,3 C 81 % 1009,1 hPa 0,0 l/m 1,5 km/h N 16,0 C 19,3 C 5,6 km/h
15.08.2011 02:00 19,8 C 81 % 1009,4 hPa 0,0 l/m 0,6 km/h N 16,4 C 19,8 C 3,6 km/h
15.08.2011 03:00 19,9 C 79 % 1009,6 hPa 0,0 l/m 0,6 km/h SW 16,1 C 19,9 C 4,8 km/h
15.08.2011 04:00 20,7 C 73 % 1009,5 hPa 0,0 l/m 0,2 km/h N 15,7 C 20,7 C 3,2 km/h
15.08.2011 05:00 20,4 C 74 % 1009,5 hPa 0,0 l/m 0,2 km/h N 15,6 C 20,4 C 4,4 km/h
15.08.2011 06:00 19,9 C 76 % 1009,9 hPa 0,0 l/m 0,4 km/h N-NW 15,6 C 19,9 C 3,2 km/h
15.08.2011 07:00 19,9 C 78 % 1010,5 hPa 0,0 l/m 1,2 km/h N-NO 16,0 C 19,9 C 5,2 km/h
15.08.2011 08:00 20,6 C 78 % 1010,8 hPa 0,0 l/m 0,5 km/h N 16,5 C 20,6 C 4,0 km/h
15.08.2011 09:00 21,6 C 74 % 1011,0 hPa 0,0 l/m 1,2 km/h N-NW 16,8 C 21,6 C 5,6 km/h
15.08.2011 10:00 24,5 C 65 % 1011,3 hPa 0,0 l/m 1,3 km/h S-SO 17,5 C 24,5 C 6,0 km/h
15.08.2011 11:00 28,9 C 52 % 1010,9 hPa 0,0 l/m 1,2 km/h N-NW 17,8 C 28,9 C 6,0 km/h
15.08.2011 12:00 31,2 C 46 % 1010,7 hPa 0,0 l/m 0,9 km/h NO 18,2 C 31,2 C 5,2 km/h
15.08.2011 13:00 32,9 C 41 % 1010,4 hPa 0,0 l/m 1,0 km/h O-NO 17,9 C 32,9 C 5,6 km/h
15.08.2011 14:00 33,2 C 41 % 1010,0 hPa 0,0 l/m 0,9 km/h SW 18,0 C 33,2 C 6,4 km/h
15.08.2011 15:00 32,9 C 41 % 1009,5 hPa 0,0 l/m 0,9 km/h W-SW 18,0 C 32,9 C 8,5 km/h
15.08.2011 16:00 25,3 C 62 % 1011,4 hPa 5,7 l/m 7,1 km/h NO 17,1 C 24,7 C 26,2 km/h
15.08.2011 17:00 19,5 C 81 % 1012,6 hPa 6,5 l/m 3,6 km/h S 16,1 C 19,5 C 18,1 km/h
15.08.2011 18:00 19,3 C 81 % 1013,3 hPa 3,9 l/m 1,9 km/h S 15,9 C 19,3 C 12,1 km/h
15.08.2011 19:00 19,1 C 81 % 1013,7 hPa 4,7 l/m 2,9 km/h S-SW 15,8 C 19,1 C 18,1 km/h
15.08.2011 20:00 18,6 C 81 % 1014,6 hPa 2,6 l/m 1,8 km/h NW 15,3 C 18,6 C 14,1 km/h
15.08.2011 21:00 18,0 C 81 % 1015,1 hPa 0,5 l/m 2,3 km/h N-NW 14,7 C 18,0 C 9,6 km/h
15.08.2011 22:00 17,7 C 81 % 1016,0 hPa 0,0 l/m 1,0 km/h NW 14,3 C 17,7 C 6,4 km/h
15.08.2011 23:00 17,7 C 81 % 1016,3 hPa 0,0 l/m 2,4 km/h N-NW 14,4 C 17,7 C 8,4 km/h
16.08.2011 00:00 17,6 C 81 % 1016,8 hPa 0,0 l/m 1,8 km/h NW 14,3 C 17,6 C 6,4 km/h
16.08.2011 01:00 17,6 C 81 % 1017,1 hPa 0,0 l/m 1,3 km/h N-NW 14,2 C 17,6 C 7,2 km/h
16.08.2011 02:00 17,3 C 81 % 1017,3 hPa 0,0 l/m 0,8 km/h NW 14,0 C 17,3 C 5,6 km/h
16.08.2011 03:00 17,1 C 81 % 1017,5 hPa 0,0 l/m 1,2 km/h NW 13,8 C 17,1 C 4,8 km/h
16.08.2011 04:00 16,6 C 81 % 1017,7 hPa 0,0 l/m 0,4 km/h N 13,4 C 16,6 C 3,6 km/h
16.08.2011 05:00 16,3 C 81 % 1017,8 hPa 0,0 l/m 0,0 km/h N 13,0 C 16,3 C 1,6 km/h
16.08.2011 06:00 16,1 C 81 % 1017,9 hPa 0,0 l/m 0,0 km/h N 12,8 C 16,1 C 0,4 km/h
16.08.2011 07:00 16,2 C 80 % 1018,1 hPa 0,0 l/m 0,0 km/h N 12,8 C 16,2 C 2,1 km/h
16.08.2011 08:00 17,4 C 80 % 1018,5 hPa 0,0 l/m 0,8 km/h N 13,8 C 17,4 C 7,2 km/h
16.08.2011 09:00 18,1 C 82 % 1018,6 hPa 0,0 l/m 2,4 km/h N-NW 14,9 C 18,1 C 8,0 km/h
16.08.2011 10:00 19,7 C 79 % 1018,7 hPa 0,0 l/m 2,3 km/h N-NW 15,9 C 19,7 C 8,1 km/h
16.08.2011 11:00 23,0 C 68 % 1018,6 hPa 0,0 l/m 2,5 km/h N-NW 16,6 C 23,0 C 8,4 km/h
16.08.2011 12:00 25,7 C 57 % 1018,3 hPa 0,0 l/m 3,1 km/h N-NW 16,5 C 25,7 C 8,5 km/h
16.08.2011 13:00 27,5 C 53 % 1017,7 hPa 0,0 l/m 2,5 km/h N-NO 16,8 C 27,5 C 7,2 km/h
16.08.2011 14:00 28,9 C 47 % 1017,5 hPa 0,0 l/m 2,3 km/h N-NW 16,5 C 28,9 C 7,6 km/h
16.08.2011 15:00 29,1 C 46 % 1017,0 hPa 0,0 l/m 3,0 km/h NO 16,2 C 29,1 C 8,4 km/h
16.08.2011 16:00 28,6 C 45 % 1016,7 hPa 0,0 l/m 3,6 km/h N 15,4 C 28,6 C 9,3 km/h
16.08.2011 17:00 27,3 C 48 % 1016,5 hPa 0,0 l/m 2,0 km/h N 15,2 C 27,3 C 6,4 km/h
16.08.2011 18:00 26,1 C 49 % 1016,4 hPa 0,0 l/m 1,8 km/h N 14,6 C 26,1 C 6,0 km/h
16.08.2011 19:00 25,2 C 52 % 1016,7 hPa 0,0 l/m 0,1 km/h N 14,5 C 25,2 C 2,0 km/h
16.08.2011 20:00 23,0 C 60 % 1017,2 hPa 0,0 l/m 0,1 km/h N 14,8 C 23,0 C 1,6 km/h
16.08.2011 21:00 20,5 C 69 % 1017,9 hPa 0,0 l/m 0,1 km/h N 14,7 C 20,5 C 2,4 km/h
16.08.2011 22:00 19,2 C 74 % 1018,3 hPa 0,0 l/m 0,1 km/h N 14,3 C 19,2 C 1,2 km/h
16.08.2011 23:00 18,5 C 77 % 1018,3 hPa 0,0 l/m 0,1 km/h N 14,4 C 18,5 C 3,2 km/h
17.08.2011 00:00 17,7 C 79 % 1018,3 hPa 0,0 l/m 0,0 km/h N 14,0 C 17,7 C 2,4 km/h
17.08.2011 01:00 17,0 C 81 % 1018,0 hPa 0,0 l/m 0,0 km/h N 13,6 C 17,0 C 2,0 km/h
17.08.2011 02:00 16,2 C 81 % 1017,9 hPa 0,0 l/m 0,0 km/h N 13,0 C 16,2 C 1,6 km/h
17.08.2011 03:00 15,4 C 82 % 1017,9 hPa 0,0 l/m 0,1 km/h N 12,3 C 15,4 C 1,2 km/h
17.08.2011 04:00 14,9 C 82 % 1017,8 hPa 0,0 l/m 0,0 km/h N 11,9 C 14,9 C 1,2 km/h
17.08.2011 05:00 14,5 C 82 % 1017,9 hPa 0,0 l/m 0,0 km/h N 11,5 C 14,5 C 0,8 km/h
17.08.2011 06:00 14,2 C 82 % 1018,1 hPa 0,0 l/m 0,0 km/h N 11,2 C 14,2 C 0,8 km/h
17.08.2011 07:00 14,6 C 81 % 1018,2 hPa 0,0 l/m 0,0 km/h N 11,4 C 14,6 C 0,8 km/h
17.08.2011 08:00 16,1 C 81 % 1018,3 hPa 0,0 l/m 0,0 km/h N 12,8 C 16,1 C 1,2 km/h
17.08.2011 09:00 18,1 C 81 % 1018,4 hPa 0,0 l/m 0,0 km/h N 14,9 C 18,1 C 0,8 km/h
17.08.2011 10:00 22,0 C 70 % 1018,3 hPa 0,0 l/m 0,1 km/h N 16,1 C 22,0 C 2,0 km/h
17.08.2011 11:00 26,8 C 51 % 1017,8 hPa 0,0 l/m 0,2 km/h N 15,8 C 26,8 C 2,8 km/h
17.08.2011 12:00 28,6 C 48 % 1017,3 hPa 0,0 l/m 0,4 km/h N 16,6 C 28,6 C 4,4 km/h
17.08.2011 13:00 29,7 C 46 % 1016,8 hPa 0,0 l/m 0,9 km/h W-NW 16,8 C 29,7 C 6,4 km/h
17.08.2011 14:00 30,5 C 44 % 1016,5 hPa 0,0 l/m 0,9 km/h N 16,6 C 30,5 C 7,3 km/h
17.08.2011 15:00 30,8 C 42 % 1016,0 hPa 0,0 l/m 0,6 km/h N 16,4 C 30,8 C 6,4 km/h
17.08.2011 16:00 30,3 C 44 % 1015,7 hPa 0,0 l/m 0,5 km/h N 16,4 C 30,3 C 3,6 km/h
17.08.2011 17:00 30,0 C 45 % 1015,5 hPa 0,0 l/m 0,6 km/h N 16,7 C 30,0 C 6,4 km/h
17.08.2011 18:00 29,2 C 47 % 1015,5 hPa 0,0 l/m 0,3 km/h N 16,7 C 29,2 C 3,2 km/h
17.08.2011 19:00 27,7 C 51 % 1015,4 hPa 0,0 l/m 0,0 km/h N 16,6 C 27,7 C 1,2 km/h
17.08.2011 20:00 25,4 C 59 % 1015,7 hPa 0,0 l/m 0,0 km/h N 16,7 C 25,4 C 0,0 km/h
17.08.2011 21:00 22,6 C 69 % 1016,1 hPa 0,0 l/m 0,0 km/h N 16,5 C 22,6 C 0,8 km/h
17.08.2011 22:00 20,8 C 74 % 1016,0 hPa 0,0 l/m 0,0 km/h N 15,9 C 20,8 C 0,4 km/h
17.08.2011 23:00 19,5 C 76 % 1015,9 hPa 0,0 l/m 0,0 km/h N 15,3 C 19,5 C 0,0 km/h
18.08.2011 00:00 18,7 C 79 % 1015,9 hPa 0,0 l/m 0,0 km/h N 15,0 C 18,7 C 0,0 km/h
18.08.2011 01:00 17,9 C 81 % 1015,6 hPa 0,0 l/m 0,0 km/h N 14,5 C 17,9 C 0,0 km/h
18.08.2011 02:00 17,2 C 81 % 1015,3 hPa 0,0 l/m 0,0 km/h N 13,9 C 17,2 C 0,0 km/h
18.08.2011 03:00 16,6 C 82 % 1015,3 hPa 0,0 l/m 0,0 km/h N 13,4 C 16,6 C 0,0 km/h
18.08.2011 04:00 16,1 C 82 % 1015,1 hPa 0,0 l/m 0,0 km/h N 12,9 C 16,1 C 0,0 km/h
18.08.2011 05:00 15,6 C 81 % 1015,3 hPa 0,0 l/m 0,0 km/h N 12,4 C 15,6 C 0,0 km/h
18.08.2011 06:00 15,4 C 81 % 1015,5 hPa 0,0 l/m 0,0 km/h N 12,2 C 15,4 C 0,0 km/h
18.08.2011 07:00 16,2 C 80 % 1015,6 hPa 0,0 l/m 0,0 km/h N 12,6 C 16,2 C 0,4 km/h
18.08.2011 08:00 17,3 C 79 % 1015,9 hPa 0,0 l/m 0,0 km/h N 13,6 C 17,3 C 0,8 km/h
18.08.2011 09:00 19,0 C 79 % 1016,1 hPa 0,0 l/m 0,3 km/h N 15,2 C 19,0 C 2,0 km/h
18.08.2011 10:00 22,4 C 78 % 1016,1 hPa 0,0 l/m 0,2 km/h N 18,2 C 22,4 C 2,8 km/h
18.08.2011 11:00 27,4 C 61 % 1016,0 hPa 0,0 l/m 0,3 km/h N 19,2 C 27,4 C 3,2 km/h
18.08.2011 12:00 30,5 C 53 % 1015,8 hPa 0,0 l/m 0,3 km/h N 19,9 C 30,5 C 3,2 km/h
18.08.2011 13:00 31,3 C 52 % 1015,5 hPa 0,0 l/m 0,5 km/h N 20,1 C 31,3 C 4,0 km/h
18.08.2011 14:00 32,7 C 48 % 1015,0 hPa 0,0 l/m 0,4 km/h N 20,2 C 32,7 C 4,0 km/h
18.08.2011 15:00 33,8 C 45 % 1014,5 hPa 0,0 l/m 0,6 km/h N 20,2 C 33,8 C 4,4 km/h
18.08.2011 16:00 33,7 C 44 % 1014,2 hPa 0,0 l/m 0,4 km/h N 19,8 C 33,7 C 4,8 km/h
18.08.2011 17:00 33,4 C 46 % 1014,1 hPa 0,0 l/m 0,4 km/h O-SO 20,1 C 33,4 C 4,8 km/h
18.08.2011 18:00 32,7 C 47 % 1014,1 hPa 0,0 l/m 0,9 km/h S-SW 19,9 C 32,7 C 6,8 km/h
18.08.2011 19:00 30,6 C 52 % 1014,0 hPa 0,0 l/m 0,4 km/h N 19,6 C 30,6 C 5,6 km/h
18.08.2011 20:00 27,9 C 60 % 1014,1 hPa 0,0 l/m 0,3 km/h N 19,4 C 27,9 C 4,0 km/h
18.08.2011 21:00 26,0 C 68 % 1014,4 hPa 0,0 l/m 0,1 km/h N 19,6 C 26,0 C 2,8 km/h
18.08.2011 22:00 24,4 C 74 % 1014,3 hPa 0,0 l/m 0,0 km/h N 19,5 C 24,4 C 0,0 km/h
18.08.2011 23:00 22,9 C 79 % 1014,3 hPa 0,0 l/m 0,0 km/h N 19,1 C 22,9 C 0,4 km/h
19.08.2011 00:00 21,8 C 81 % 1014,1 hPa 0,0 l/m 0,0 km/h N 18,2 C 21,8 C 0,4 km/h
19.08.2011 01:00 20,7 C 81 % 1013,9 hPa 0,0 l/m 0,0 km/h N 17,3 C 20,7 C 0,0 km/h
19.08.2011 02:00 19,9 C 81 % 1013,6 hPa 0,0 l/m 0,0 km/h N 16,5 C 19,9 C 0,8 km/h
19.08.2011 03:00 19,6 C 80 % 1013,1 hPa 0,0 l/m 0,0 km/h N 16,1 C 19,6 C 1,2 km/h
19.08.2011 04:00 19,3 C 80 % 1013,1 hPa 0,0 l/m 0,1 km/h N 15,7 C 19,3 C 1,6 km/h
19.08.2011 05:00 19,0 C 80 % 1013,2 hPa 0,0 l/m 0,0 km/h N 15,4 C 19,0 C 0,0 km/h
19.08.2011 06:00 19,0 C 79 % 1014,1 hPa 0,0 l/m 0,5 km/h NO 15,3 C 19,0 C 3,7 km/h
19.08.2011 07:00 22,2 C 76 % 1014,1 hPa 0,0 l/m 3,6 km/h S-SO 17,6 C 22,2 C 19,7 km/h
19.08.2011 08:00 25,0 C 65 % 1014,2 hPa 0,0 l/m 1,3 km/h S-SO 17,8 C 25,0 C 9,2 km/h
19.08.2011 09:00 25,7 C 68 % 1014,2 hPa 0,0 l/m 0,0 km/h N 19,2 C 25,7 C 0,8 km/h
19.08.2011 10:00 26,2 C 69 % 1014,6 hPa 0,0 l/m 0,0 km/h N 20,0 C 26,2 C 0,4 km/h
19.08.2011 11:00 27,7 C 65 % 1015,1 hPa 0,0 l/m 0,0 km/h N 20,4 C 27,7 C 1,6 km/h
19.08.2011 12:00 29,5 C 56 % 1015,9 hPa 0,0 l/m 2,4 km/h S-SO 19,7 C 29,5 C 10,4 km/h
19.08.2011 13:00 28,5 C 55 % 1015,8 hPa 0,0 l/m 4,2 km/h N-NW 18,7 C 28,5 C 18,5 km/h
19.08.2011 14:00 28,4 C 55 % 1015,6 hPa 0,0 l/m 5,1 km/h S-SO 18,5 C 28,3 C 22,1 km/h
19.08.2011 15:00 28,0 C 52 % 1015,0 hPa 0,0 l/m 4,1 km/h NO 17,2 C 28,0 C 18,9 km/h
19.08.2011 16:00 26,7 C 56 % 1015,5 hPa 0,0 l/m 0,6 km/h N 17,3 C 26,7 C 5,6 km/h
19.08.2011 17:00 26,6 C 59 % 1015,7 hPa 0,0 l/m 0,6 km/h S 17,9 C 26,6 C 5,6 km/h
19.08.2011 18:00 28,2 C 53 % 1015,2 hPa 0,0 l/m 1,5 km/h S 17,6 C 28,2 C 8,4 km/h
19.08.2011 19:00 28,3 C 52 % 1014,8 hPa 0,0 l/m 0,3 km/h N 17,6 C 28,3 C 4,4 km/h
19.08.2011 20:00 25,6 C 60 % 1016,1 hPa 0,0 l/m 1,8 km/h N-NO 17,3 C 25,6 C 5,6 km/h
19.08.2011 21:00 23,8 C 70 % 1017,6 hPa 0,3 l/m 1,0 km/h N 17,8 C 23,8 C 4,4 km/h
19.08.2011 22:00 21,8 C 79 % 1017,8 hPa 1,3 l/m 0,6 km/h S-SW 18,0 C 21,8 C 4,0 km/h
19.08.2011 23:00 20,8 C 81 % 1018,1 hPa 0,0 l/m 0,6 km/h N 17,3 C 20,8 C 6,8 km/h
20.08.2011 00:00 20,1 C 81 % 1018,3 hPa 0,0 l/m 0,7 km/h S 16,6 C 20,1 C 6,8 km/h
20.08.2011 01:00 19,8 C 81 % 1018,5 hPa 0,0 l/m 0,4 km/h N 16,3 C 19,8 C 4,0 km/h
20.08.2011 02:00 19,3 C 81 % 1018,8 hPa 0,3 l/m 0,0 km/h N 16,0 C 19,3 C 1,6 km/h
20.08.2011 03:00 18,8 C 81 % 1019,0 hPa 0,0 l/m 0,3 km/h N 15,4 C 18,8 C 3,6 km/h
20.08.2011 04:00 18,8 C 80 % 1019,4 hPa 0,0 l/m 0,5 km/h N 15,3 C 18,8 C 4,0 km/h
20.08.2011 05:00 18,4 C 81 % 1019,6 hPa 0,0 l/m 0,0 km/h N 15,0 C 18,4 C 2,0 km/h
20.08.2011 06:00 18,0 C 81 % 1020,1 hPa 0,0 l/m 0,0 km/h N 14,6 C 18,0 C 0,8 km/h
20.08.2011 07:00 18,4 C 80 % 1020,8 hPa 0,0 l/m 0,4 km/h N-NO 15,0 C 18,4 C 2,0 km/h
20.08.2011 08:00 18,5 C 79 % 1021,5 hPa 0,0 l/m 1,6 km/h N 14,9 C 18,5 C 6,0 km/h
20.08.2011 09:00 19,5 C 70 % 1022,0 hPa 0,0 l/m 1,4 km/h N 13,9 C 19,5 C 4,8 km/h
20.08.2011 10:00 20,8 C 69 % 1022,4 hPa 0,0 l/m 0,2 km/h N 14,9 C 20,8 C 2,0 km/h
20.08.2011 11:00 22,0 C 66 % 1022,3 hPa 0,0 l/m 0,3 km/h N 15,3 C 22,0 C 2,8 km/h
20.08.2011 12:00 23,8 C 66 % 1022,1 hPa 0,0 l/m 0,7 km/h N-NW 17,0 C 23,8 C 4,0 km/h
20.08.2011 13:00 28,0 C 57 % 1021,5 hPa 0,0 l/m 2,3 km/h N-NW 18,5 C 28,0 C 7,2 km/h
20.08.2011 14:00 30,3 C 50 % 1021,0 hPa 0,0 l/m 3,3 km/h N-NW 18,6 C 30,3 C 10,1 km/h
20.08.2011 15:00 31,0 C 47 % 1020,5 hPa 0,0 l/m 3,4 km/h N-NO 18,3 C 31,0 C 10,1 km/h
20.08.2011 16:00 30,9 C 48 % 1020,2 hPa 0,0 l/m 3,1 km/h N-NO 18,6 C 30,9 C 8,5 km/h
20.08.2011 17:00 31,0 C 48 % 1019,8 hPa 0,0 l/m 2,0 km/h NO 18,7 C 31,0 C 5,6 km/h
20.08.2011 18:00 30,5 C 49 % 1019,8 hPa 0,0 l/m 0,8 km/h N 18,4 C 30,5 C 3,6 km/h
20.08.2011 19:00 28,0 C 51 % 1020,0 hPa 0,0 l/m 0,0 km/h N 16,7 C 28,0 C 1,6 km/h
20.08.2011 20:00 25,0 C 58 % 1020,5 hPa 0,0 l/m 0,0 km/h N 16,1 C 25,0 C 0,0 km/h
20.08.2011 21:00 22,3 C 68 % 1020,8 hPa 0,0 l/m 0,0 km/h N 16,0 C 22,3 C 0,4 km/h
20.08.2011 22:00 20,2 C 76 % 1021,0 hPa 0,0 l/m 0,0 km/h N 15,8 C 20,2 C 0,0 km/h
20.08.2011 23:00 18,8 C 80 % 1021,0 hPa 0,0 l/m 0,0 km/h N 15,2 C 18,8 C 0,0 km/h
21.08.2011 00:00 17,8 C 81 % 1020,9 hPa 0,0 l/m 0,0 km/h N 14,5 C 17,8 C 0,0 km/h
21.08.2011 01:00 17,1 C 82 % 1020,8 hPa 0,0 l/m 0,0 km/h N 14,0 C 17,1 C 0,0 km/h
21.08.2011 02:00 16,5 C 81 % 1020,5 hPa 0,0 l/m 0,0 km/h N 13,3 C 16,5 C 0,0 km/h
21.08.2011 03:00 16,1 C 81 % 1020,5 hPa 0,0 l/m 0,0 km/h N 12,8 C 16,1 C 0,0 km/h
21.08.2011 04:00 15,6 C 81 % 1020,5 hPa 0,0 l/m 0,0 km/h N 12,3 C 15,6 C 0,0 km/h
21.08.2011 05:00 15,0 C 81 % 1020,6 hPa 0,0 l/m 0,0 km/h N 11,8 C 15,0 C 0,0 km/h
21.08.2011 06:00 14,8 C 81 % 1021,0 hPa 0,0 l/m 0,0 km/h N 11,6 C 14,8 C 0,0 km/h
21.08.2011 07:00 15,3 C 80 % 1021,2 hPa 0,0 l/m 0,0 km/h N 11,8 C 15,3 C 0,0 km/h
21.08.2011 08:00 16,7 C 78 % 1021,1 hPa 0,0 l/m 0,0 km/h N 12,9 C 16,7 C 0,4 km/h
21.08.2011 09:00 18,5 C 80 % 1020,9 hPa 0,0 l/m 0,0 km/h N 14,9 C 18,5 C 1,6 km/h
21.08.2011 10:00 21,7 C 76 % 1020,9 hPa 0,0 l/m 0,2 km/h N 17,1 C 21,7 C 3,6 km/h
21.08.2011 11:00 26,0 C 58 % 1020,5 hPa 0,0 l/m 0,5 km/h N 17,1 C 26,0 C 4,4 km/h
21.08.2011 12:00 28,8 C 50 % 1020,0 hPa 0,0 l/m 0,7 km/h SO 17,3 C 28,8 C 6,0 km/h
21.08.2011 13:00 30,4 C 48 % 1019,7 hPa 0,0 l/m 0,6 km/h N 18,1 C 30,4 C 5,2 km/h
21.08.2011 14:00 32,7 C 45 % 1019,4 hPa 0,0 l/m 0,6 km/h N 19,0 C 32,7 C 5,6 km/h
21.08.2011 15:00 32,7 C 45 % 1019,0 hPa 0,0 l/m 0,4 km/h S 19,1 C 32,7 C 3,2 km/h
21.08.2011 16:00 32,3 C 45 % 1018,5 hPa 0,0 l/m 0,5 km/h N 18,7 C 32,3 C 3,2 km/h
21.08.2011 17:00 32,2 C 44 % 1018,4 hPa 0,0 l/m 0,5 km/h S 18,4 C 32,2 C 4,0 km/h
21.08.2011 18:00 31,8 C 48 % 1018,1 hPa 0,0 l/m 0,1 km/h N 19,3 C 31,8 C 2,8 km/h
21.08.2011 19:00 29,9 C 53 % 1018,1 hPa 0,0 l/m 0,0 km/h N 19,0 C 29,9 C 0,4 km/h
21.08.2011 20:00 27,2 C 62 % 1018,3 hPa 0,0 l/m 0,0 km/h N 19,1 C 27,2 C 0,0 km/h
21.08.2011 21:00 24,4 C 71 % 1018,5 hPa 0,0 l/m 0,0 km/h N 18,7 C 24,4 C 0,0 km/h
21.08.2011 22:00 22,7 C 76 % 1017,8 hPa 0,0 l/m 0,0 km/h N 18,3 C 22,7 C 0,4 km/h
21.08.2011 23:00 21,8 C 79 % 1017,8 hPa 0,0 l/m 0,0 km/h N 17,9 C 21,8 C 0,4 km/h
Min-Datum _ 17.08.11 15.08.11 15.08.11 - 15.08.11 - 17.08.11 17.08.11 15.08.11
_ Min-Zeit 06:15 14:30 00:00 - 00:00 - 07:00 06:00 00:00
Minimum _ 14,2 C 39 % 1008,2 hPa - 0,0 km/h - 11,1 C 14,2 C 0,0 km/h
Max-Datum _ 18.08.11 16.08.11 20.08.11 15.08.11 15.08.11 - 19.08.11 18.08.11 15.08.11
_ Max-Zeit 15:15 04:00 10:15 17:00 16:30 - 12:15 15:00 16:15
Maximum _ 34,4 C 82 % 1022,4 hPa 6,5 l/m 10,0 km/h
NO
- 20,6 C 34,3 C 32,2 km/h
SW
Durchschnitt _ 23,0 C 68 % 1016,6 hPa #25,7 l/m 0,8 km/h N-NW 16,2 C 23,0 C 4,3 km/h